createdAt,value
2022-12-28T00:02:14.352Z,5.28
2022-12-28T00:04:42.348Z,5.24
2022-12-28T00:07:10.325Z,5.18
2022-12-28T00:09:38.060Z,5.12
2022-12-28T00:12:06.104Z,5.07
2022-12-28T00:14:33.877Z,5.28
2022-12-28T00:17:01.623Z,6.63
2022-12-28T00:19:29.678Z,8.01
2022-12-28T00:21:57.655Z,8.72
2022-12-28T00:24:25.929Z,8.24
2022-12-28T00:26:56.873Z,7.60
2022-12-28T00:29:24.883Z,7.15
2022-12-28T00:31:52.806Z,6.83
2022-12-28T00:34:25.197Z,6.59
2022-12-28T00:37:10.747Z,6.38
2022-12-28T00:39:42.227Z,6.17
2022-12-28T00:42:10.667Z,6.01
2022-12-28T00:44:38.836Z,5.85
2022-12-28T00:47:07.102Z,5.71
2022-12-28T00:49:34.887Z,5.57
2022-12-28T00:52:02.663Z,5.44
2022-12-28T00:54:30.437Z,5.33
2022-12-28T00:56:58.305Z,5.25
2022-12-28T00:59:26.037Z,5.18
2022-12-28T01:01:54.016Z,5.13
2022-12-28T01:04:22.895Z,5.07
2022-12-28T01:06:50.643Z,5.02
2022-12-28T01:09:18.447Z,4.99
2022-12-28T01:11:46.243Z,4.96
2022-12-28T01:14:14.073Z,4.93
2022-12-28T01:16:42.168Z,4.90
2022-12-28T01:19:11.302Z,4.87
2022-12-28T01:21:39.370Z,4.84
2022-12-28T01:24:08.667Z,4.80
2022-12-28T01:26:36.569Z,4.98
2022-12-28T01:29:04.475Z,6.25
2022-12-28T01:31:35.512Z,7.52
2022-12-28T01:34:03.403Z,8.35
2022-12-28T01:36:33.037Z,7.99
2022-12-28T01:39:04.362Z,7.39
2022-12-28T01:41:37.239Z,6.95
2022-12-28T01:44:05.462Z,6.63
2022-12-28T01:47:01.404Z,6.39
2022-12-28T01:49:33.800Z,6.17
2022-12-28T01:52:20.039Z,6.00
2022-12-28T01:54:54.138Z,5.85
2022-12-28T01:57:24.485Z,5.72
2022-12-28T01:59:57.475Z,5.61
2022-12-28T02:02:25.755Z,5.49
2022-12-28T02:04:53.956Z,5.38
2022-12-28T02:07:36.801Z,5.28
2022-12-28T02:10:40.500Z,5.17
2022-12-28T02:12:54.474Z,5.09
2022-12-28T02:15:23.530Z,5.01
2022-12-28T02:17:51.592Z,4.95
2022-12-28T02:20:19.707Z,4.92
2022-12-28T02:23:15.939Z,4.88
2022-12-28T02:26:02.057Z,4.82
2022-12-28T02:29:07.711Z,4.78
2022-12-28T02:31:44.466Z,4.73
2022-12-28T02:34:33.294Z,4.67
2022-12-28T02:37:12.499Z,4.62
2022-12-28T02:39:45.018Z,4.83
2022-12-28T02:42:13.958Z,6.16
2022-12-28T02:45:00.574Z,7.70
2022-12-28T02:47:47.025Z,8.65
2022-12-28T02:50:15.779Z,7.99
2022-12-28T02:53:24.677Z,7.36
2022-12-28T02:56:14.419Z,6.83
2022-12-28T02:59:01.633Z,6.49
2022-12-28T03:01:36.292Z,6.23
2022-12-28T03:04:37.596Z,6.05
2022-12-28T03:07:37.207Z,5.87
2022-12-28T03:10:11.933Z,5.71
2022-12-28T03:12:56.619Z,5.59
2022-12-28T03:15:30.108Z,5.48
2022-12-28T03:18:19.860Z,5.40
2022-12-28T03:21:07.051Z,5.33
2022-12-28T03:23:54.211Z,5.29
2022-12-28T03:26:42.588Z,5.24
2022-12-28T03:29:32.549Z,5.21
2022-12-28T03:32:01.149Z,5.17
2022-12-28T03:34:29.160Z,5.14
2022-12-28T03:37:04.624Z,5.12
2022-12-28T03:39:54.074Z,5.44
2022-12-28T03:42:51.945Z,7.25
2022-12-28T03:45:45.323Z,9.01
2022-12-28T03:48:08.493Z,9.46
2022-12-28T03:50:39.211Z,8.80
2022-12-28T03:53:09.070Z,8.15
2022-12-28T03:55:38.091Z,7.70
2022-12-28T03:58:06.375Z,7.36
2022-12-28T04:00:34.495Z,7.07
2022-12-28T04:03:03.467Z,6.85
2022-12-28T04:05:31.611Z,6.65
2022-12-28T04:07:59.501Z,6.49
2022-12-28T04:10:27.407Z,6.36
2022-12-28T04:12:56.902Z,6.22
2022-12-28T04:15:33.011Z,6.08
2022-12-28T04:18:01.921Z,5.94
2022-12-28T04:20:29.787Z,5.84
2022-12-28T04:22:57.656Z,5.74
2022-12-28T04:25:26.314Z,5.66
2022-12-28T04:27:54.005Z,5.60
2022-12-28T04:30:55.426Z,5.55
2022-12-28T04:33:24.412Z,5.48
2022-12-28T04:35:52.459Z,5.43
2022-12-28T04:38:21.387Z,5.59
2022-12-28T04:40:49.117Z,6.73
2022-12-28T04:43:16.851Z,8.08
2022-12-28T04:45:44.603Z,8.95
2022-12-28T04:48:12.308Z,8.52
2022-12-28T04:50:40.039Z,7.87
2022-12-28T04:53:07.812Z,7.38
2022-12-28T04:55:35.613Z,7.02
2022-12-28T04:58:03.984Z,6.73
2022-12-28T05:00:31.821Z,6.48
2022-12-28T05:03:00.403Z,6.29
2022-12-28T05:05:29.555Z,6.15
2022-12-28T05:08:00.515Z,6.02
2022-12-28T05:10:29.159Z,5.90
2022-12-28T05:12:57.018Z,5.78
2022-12-28T05:15:24.852Z,5.66
2022-12-28T05:17:52.638Z,5.57
2022-12-28T05:20:20.667Z,5.50
2022-12-28T05:22:48.490Z,5.44
2022-12-28T05:25:16.611Z,5.38
2022-12-28T05:27:44.610Z,5.53
2022-12-28T05:30:15.760Z,6.73
2022-12-28T05:32:43.539Z,8.10
2022-12-28T05:35:11.260Z,8.98
2022-12-28T05:37:39.063Z,8.51
2022-12-28T05:40:07.348Z,7.79
2022-12-28T05:42:36.167Z,7.26
2022-12-28T05:45:04.334Z,6.87
2022-12-28T05:47:32.066Z,6.59
2022-12-28T05:49:59.810Z,6.38
2022-12-28T05:52:28.890Z,6.19
2022-12-28T05:54:56.698Z,6.01
2022-12-28T05:57:24.477Z,5.87
2022-12-28T05:59:52.191Z,5.75
2022-12-28T06:02:24.567Z,5.64
2022-12-28T06:04:53.741Z,5.55
2022-12-28T06:07:21.774Z,5.47
2022-12-28T06:09:49.596Z,5.43
2022-12-28T06:12:17.643Z,5.61
2022-12-28T06:14:45.514Z,7.03
2022-12-28T06:17:13.257Z,8.53
2022-12-28T06:19:41.244Z,9.24
2022-12-28T06:22:08.956Z,8.72
2022-12-28T06:24:36.692Z,8.04
2022-12-28T06:27:04.464Z,7.55
2022-12-28T06:29:32.204Z,7.20
2022-12-28T06:32:01.436Z,6.92
2022-12-28T06:34:29.414Z,6.72
2022-12-28T06:36:58.097Z,6.55
2022-12-28T06:39:25.820Z,6.42
2022-12-28T06:41:53.576Z,6.30
2022-12-28T06:44:21.610Z,6.18
2022-12-28T06:46:49.315Z,6.07
2022-12-28T06:49:17.114Z,5.96
2022-12-28T06:51:44.868Z,5.88
2022-12-28T06:54:12.605Z,5.83
2022-12-28T06:56:40.487Z,5.78
2022-12-28T06:59:08.501Z,5.74
2022-12-28T07:01:39.138Z,5.71
2022-12-28T07:04:08.450Z,5.67
2022-12-28T07:06:41.546Z,5.64
2022-12-28T07:09:13.474Z,5.62
2022-12-28T07:11:42.455Z,5.59
2022-12-28T07:14:10.260Z,5.59
2022-12-28T07:19:04.871Z,5.81
2022-12-28T07:21:35.696Z,7.31
2022-12-28T07:24:04.645Z,8.95
2022-12-28T07:26:34.326Z,9.76
2022-12-28T07:29:04.513Z,9.24
2022-12-28T07:31:38.350Z,8.54
2022-12-28T07:34:12.243Z,7.99
2022-12-28T07:36:40.001Z,7.62
2022-12-28T07:39:08.172Z,7.33
2022-12-28T07:41:38.876Z,7.06
2022-12-28T07:44:08.501Z,6.85
2022-12-28T07:46:37.887Z,6.67
2022-12-28T07:49:05.821Z,6.50
2022-12-28T07:51:35.781Z,6.34
2022-12-28T07:54:04.534Z,6.18
2022-12-28T07:59:05.204Z,5.96
2022-12-28T08:01:35.738Z,6.21
2022-12-28T08:04:06.757Z,7.66
2022-12-28T08:06:36.793Z,9.09
2022-12-28T08:09:05.943Z,9.83
2022-12-28T08:11:35.873Z,9.30
2022-12-28T08:14:04.805Z,8.59
2022-12-28T08:16:35.629Z,8.09
2022-12-28T08:19:03.741Z,7.70
2022-12-28T08:21:36.540Z,7.42
2022-12-28T08:24:05.353Z,7.16
2022-12-28T08:26:35.985Z,6.94
2022-12-28T08:29:09.736Z,6.77
2022-12-28T08:31:40.455Z,6.66
2022-12-28T08:34:10.849Z,6.55
2022-12-28T08:36:38.656Z,6.48
2022-12-28T08:39:06.745Z,6.44
2022-12-28T08:41:34.969Z,6.38
2022-12-28T08:44:03.545Z,6.35
2022-12-28T08:46:33.619Z,6.37
2022-12-28T08:49:02.157Z,6.51
2022-12-28T08:51:35.659Z,7.51
2022-12-28T08:54:03.786Z,8.64
2022-12-28T08:56:37.278Z,9.39
2022-12-28T08:59:05.944Z,9.08
2022-12-28T09:01:42.955Z,8.54
2022-12-28T09:04:16.759Z,8.13
2022-12-28T09:06:44.841Z,7.85
2022-12-28T09:09:15.238Z,7.65
2022-12-28T09:11:43.589Z,7.51
2022-12-28T09:14:20.433Z,7.40
2022-12-28T09:16:54.709Z,7.32
2022-12-28T09:19:23.157Z,7.27
2022-12-28T09:21:53.254Z,7.23
2022-12-28T09:24:22.519Z,7.19
2022-12-28T09:26:52.957Z,7.17
2022-12-28T09:29:21.063Z,7.17
2022-12-28T09:31:48.912Z,7.18
2022-12-28T09:34:36.392Z,7.18
2022-12-28T09:37:06.818Z,7.19
2022-12-28T09:39:35.049Z,7.23
2022-12-28T09:42:07.896Z,7.26
2022-12-28T09:45:00.691Z,7.29
2022-12-28T09:47:35.192Z,7.31
2022-12-28T09:50:26.052Z,7.34
2022-12-28T09:52:59.882Z,7.40
2022-12-28T09:55:28.183Z,7.48
2022-12-28T09:57:58.023Z,7.57
2022-12-28T10:00:48.176Z,7.84
2022-12-28T10:03:26.889Z,8.24
2022-12-28T10:05:56.388Z,8.71
2022-12-28T10:08:25.035Z,9.09
2022-12-28T10:10:53.780Z,9.20
2022-12-28T10:16:21.221Z,9.42
2022-12-28T10:18:49.696Z,9.60
2022-12-28T10:21:19.916Z,9.76
2022-12-28T10:24:21.227Z,9.96
2022-12-28T10:26:37.990Z,10.20
2022-12-28T10:29:06.146Z,10.42
2022-12-28T10:31:39.168Z,10.63
2022-12-28T10:34:34.719Z,10.83
2022-12-28T10:37:14.356Z,11.10
2022-12-28T10:39:53.306Z,11.30
2022-12-28T10:42:32.173Z,11.37
2022-12-28T10:45:06.293Z,11.09
2022-12-28T10:47:36.411Z,10.73
2022-12-28T10:52:58.076Z,10.06
2022-12-28T10:55:27.987Z,9.83
2022-12-28T10:58:28.141Z,9.69
2022-12-28T11:00:50.345Z,9.64
2022-12-28T11:03:24.858Z,9.56
2022-12-28T11:06:27.426Z,9.53
2022-12-28T11:09:15.480Z,9.58
2022-12-28T11:11:45.226Z,9.65
2022-12-28T11:14:15.083Z,9.64
2022-12-28T11:21:02.367Z,9.50
2022-12-28T11:23:31.890Z,9.55
2022-12-28T11:26:00.778Z,9.56
2022-12-28T11:28:28.560Z,9.52
2022-12-28T11:30:56.672Z,9.52
2022-12-28T11:33:44.867Z,9.49
2022-12-28T11:36:20.561Z,9.52
2022-12-28T11:38:50.732Z,9.50
2022-12-28T11:41:27.721Z,9.52
2022-12-28T11:44:04.603Z,9.71
2022-12-28T11:46:35.603Z,9.91
2022-12-28T11:49:05.732Z,10.05
2022-12-28T11:51:37.093Z,10.10
2022-12-28T11:54:38.585Z,10.03
2022-12-28T11:57:08.209Z,9.90
2022-12-28T11:59:36.646Z,9.71
2022-12-28T12:02:19.907Z,9.57
2022-12-28T12:04:48.025Z,9.53
2022-12-28T12:07:19.859Z,9.78
2022-12-28T12:09:50.026Z,10.14
2022-12-28T12:12:18.394Z,10.49
2022-12-28T12:14:57.804Z,10.88
2022-12-28T12:17:47.800Z,11.20
2022-12-28T12:20:34.431Z,11.38
2022-12-28T12:23:06.471Z,11.45
2022-12-28T12:25:43.117Z,11.54
2022-12-28T12:28:32.904Z,11.58
2022-12-28T12:31:02.905Z,11.64
2022-12-28T12:33:35.578Z,11.59
2022-12-28T12:36:25.914Z,11.47
2022-12-28T12:39:24.843Z,11.41
2022-12-28T12:42:10.319Z,11.30
2022-12-28T12:45:11.493Z,11.05
2022-12-28T12:47:57.670Z,10.83
2022-12-28T12:51:16.955Z,10.75
2022-12-28T12:53:53.472Z,10.52
2022-12-28T12:56:30.595Z,10.29
2022-12-28T12:59:30.147Z,10.17
2022-12-28T13:02:00.142Z,10.03
2022-12-28T13:04:29.887Z,9.95
2022-12-28T13:07:03.595Z,9.88
2022-12-28T13:09:33.873Z,9.83
2022-12-28T13:12:02.133Z,9.78
2022-12-28T13:14:29.897Z,9.70
2022-12-28T13:16:59.187Z,9.67
2022-12-28T13:19:29.002Z,9.66
2022-12-28T13:21:59.329Z,9.64
2022-12-28T13:24:38.864Z,9.55
2022-12-28T13:27:18.538Z,9.45
2022-12-28T13:29:51.813Z,9.40
2022-12-28T13:32:30.393Z,9.36
2022-12-28T13:35:02.740Z,9.35
2022-12-28T13:37:30.697Z,9.32
2022-12-28T13:40:11.691Z,9.25
2022-12-28T13:42:52.924Z,9.23
2022-12-28T13:45:20.991Z,9.24
2022-12-28T13:47:51.894Z,9.26
2022-12-28T13:50:26.798Z,9.26
2022-12-28T13:52:59.103Z,9.23
2022-12-28T13:55:51.890Z,9.19
2022-12-28T13:58:32.551Z,9.15
2022-12-28T14:01:03.677Z,9.09
2022-12-28T14:03:38.998Z,9.01
2022-12-28T14:06:08.310Z,8.94
2022-12-28T14:08:37.863Z,8.89
2022-12-28T14:11:06.533Z,8.86
2022-12-28T14:13:35.036Z,8.85
2022-12-28T14:16:04.336Z,8.84
2022-12-28T14:18:33.742Z,8.84
2022-12-28T14:21:02.262Z,8.83
2022-12-28T14:23:35.922Z,8.82
2022-12-28T14:26:05.971Z,8.82
2022-12-28T14:28:41.083Z,8.77
2022-12-28T14:31:13.769Z,8.72
2022-12-28T14:33:55.240Z,8.70
2022-12-28T14:36:28.738Z,8.70
2022-12-28T14:41:46.394Z,8.69
2022-12-28T14:44:17.810Z,8.64
2022-12-28T14:46:45.692Z,8.61
2022-12-28T14:49:28.885Z,8.59
2022-12-28T14:51:57.476Z,8.56
2022-12-28T14:54:28.758Z,8.55
2022-12-28T14:57:03.778Z,8.54
2022-12-28T14:59:37.312Z,8.56
2022-12-28T15:02:05.875Z,8.57
2022-12-28T15:04:36.950Z,8.58
2022-12-28T15:07:06.503Z,8.57
2022-12-28T15:09:35.486Z,8.56
2022-12-28T15:12:14.095Z,8.55
2022-12-28T15:14:42.158Z,8.53
2022-12-28T15:17:10.591Z,8.55
2022-12-28T15:19:38.730Z,8.50
2022-12-28T15:22:06.546Z,8.48
2022-12-28T15:24:35.314Z,8.48
2022-12-28T15:27:03.833Z,8.48
2022-12-28T15:30:03.796Z,8.48
2022-12-28T15:32:19.738Z,8.48
2022-12-28T15:34:47.487Z,8.48
2022-12-28T15:37:15.266Z,8.47
2022-12-28T15:39:43.173Z,8.44
2022-12-28T15:42:11.170Z,8.42
2022-12-28T15:44:39.913Z,8.40
2022-12-28T15:47:08.189Z,8.39
2022-12-28T15:49:35.962Z,8.40
2022-12-28T15:52:03.908Z,8.42
2022-12-28T15:54:31.753Z,8.44
2022-12-28T15:56:59.526Z,8.46
2022-12-28T15:59:27.604Z,8.48
2022-12-28T16:01:55.829Z,8.50
2022-12-28T16:04:23.825Z,8.52
2022-12-28T16:06:51.544Z,8.55
2022-12-28T16:09:19.602Z,8.55
2022-12-28T16:11:53.107Z,8.57
2022-12-28T16:14:23.037Z,8.58
2022-12-28T16:16:51.521Z,8.56
2022-12-28T16:19:19.544Z,8.55
2022-12-28T16:21:49.631Z,8.57
2022-12-28T16:24:19.489Z,8.58
2022-12-28T16:26:47.349Z,8.59
2022-12-28T16:29:15.174Z,8.59
2022-12-28T16:31:43.102Z,8.60
2022-12-28T16:34:16.369Z,8.60
2022-12-28T16:36:47.877Z,8.59
2022-12-28T16:39:17.858Z,8.57
2022-12-28T16:41:45.741Z,8.57
2022-12-28T16:44:24.818Z,8.57
2022-12-28T16:46:54.919Z,8.56
2022-12-28T16:49:23.060Z,8.57
2022-12-28T16:51:50.869Z,8.57
2022-12-28T16:54:23.938Z,8.60
2022-12-28T16:56:52.929Z,8.61
2022-12-28T16:59:25.992Z,8.63
2022-12-28T17:01:55.062Z,8.65
2022-12-28T17:04:23.395Z,8.66
2022-12-28T17:06:51.854Z,8.64
2022-12-28T17:09:20.448Z,8.63
2022-12-28T17:11:50.252Z,8.64
2022-12-28T17:14:35.708Z,8.64
2022-12-28T17:17:05.950Z,8.64
2022-12-28T17:19:33.820Z,8.66
2022-12-28T17:22:01.899Z,8.68
2022-12-28T17:24:29.769Z,8.72
2022-12-28T17:27:03.426Z,8.72
2022-12-28T17:29:33.230Z,8.73
2022-12-28T17:32:01.105Z,8.75
2022-12-28T17:34:32.937Z,8.75
2022-12-28T17:37:00.740Z,8.77
2022-12-28T17:39:28.778Z,8.78
2022-12-28T17:41:58.090Z,8.80
2022-12-28T17:44:25.990Z,8.82
2022-12-28T17:46:53.746Z,8.83
2022-12-28T17:49:21.657Z,8.83
2022-12-28T17:51:49.695Z,8.84
2022-12-28T17:54:17.931Z,8.82
2022-12-28T17:56:46.135Z,8.82
2022-12-28T17:59:15.637Z,8.83
2022-12-28T18:01:43.996Z,8.85
2022-12-28T18:04:12.483Z,8.86
2022-12-28T18:06:40.489Z,8.87
2022-12-28T18:09:08.222Z,8.88
2022-12-28T18:11:36.074Z,8.90
2022-12-28T18:14:03.968Z,8.90
2022-12-28T18:16:31.797Z,8.89
2022-12-28T18:18:59.936Z,8.89
2022-12-28T18:21:28.440Z,8.89
2022-12-28T18:23:56.309Z,8.91
2022-12-28T18:26:26.463Z,8.91
2022-12-28T18:28:56.203Z,8.91
2022-12-28T18:31:25.317Z,8.90
2022-12-28T18:33:53.358Z,8.90
2022-12-28T18:36:21.113Z,8.92
2022-12-28T18:38:50.117Z,8.93
2022-12-28T18:41:20.811Z,8.95
2022-12-28T18:43:50.991Z,8.98
2022-12-28T18:46:20.334Z,9.00
2022-12-28T18:48:48.226Z,9.02
2022-12-28T18:51:17.419Z,9.04
2022-12-28T18:53:45.385Z,9.06
2022-12-28T18:56:20.727Z,9.10
2022-12-28T18:58:53.613Z,9.11
2022-12-28T19:04:12.492Z,9.14
2022-12-28T19:06:40.681Z,9.14
2022-12-28T19:09:10.154Z,9.14
2022-12-28T19:11:39.354Z,9.15
2022-12-28T19:14:09.826Z,9.16
2022-12-28T19:16:37.844Z,9.15
2022-12-28T19:19:06.138Z,9.14
2022-12-28T19:21:41.649Z,9.13
2022-12-28T19:24:17.990Z,9.13
2022-12-28T19:26:47.055Z,9.13
2022-12-28T19:29:16.144Z,9.11
2022-12-28T19:31:44.340Z,9.10
2022-12-28T19:34:12.520Z,9.14
2022-12-28T19:36:40.796Z,9.16
2022-12-28T19:39:09.050Z,9.16
2022-12-28T19:41:37.441Z,9.15
2022-12-28T19:44:06.283Z,9.16
2022-12-28T19:46:34.488Z,9.16
2022-12-28T19:49:04.487Z,9.17
2022-12-28T19:51:33.233Z,9.18
2022-12-28T19:54:01.777Z,9.18
2022-12-28T19:56:30.557Z,9.17
2022-12-28T19:59:05.627Z,9.17
2022-12-28T20:01:35.716Z,9.17
2022-12-28T20:04:13.057Z,9.17
2022-12-28T20:06:45.453Z,9.15
2022-12-28T20:09:14.603Z,9.13
2022-12-28T20:11:45.019Z,9.13
2022-12-28T20:14:14.754Z,9.14
2022-12-28T20:16:43.527Z,9.13
2022-12-28T20:19:12.737Z,9.14
2022-12-28T20:21:44.160Z,9.14
2022-12-28T20:24:13.102Z,9.14
2022-12-28T20:26:41.195Z,9.16
2022-12-28T20:29:09.365Z,9.16
2022-12-28T20:31:37.571Z,9.16
2022-12-28T20:34:05.987Z,9.16
2022-12-28T20:36:34.991Z,9.17
2022-12-28T20:39:03.939Z,9.17
2022-12-28T20:41:53.922Z,9.17
2022-12-28T20:44:29.172Z,9.17
2022-12-28T20:46:57.939Z,9.17
2022-12-28T20:49:27.102Z,9.17
2022-12-28T20:51:55.528Z,9.17
2022-12-28T20:54:24.085Z,9.17
2022-12-28T20:56:55.241Z,9.17
2022-12-28T20:59:25.682Z,9.19
2022-12-28T21:01:54.527Z,9.20
2022-12-28T21:04:24.574Z,9.20
2022-12-28T21:06:53.974Z,9.17
2022-12-28T21:09:21.907Z,9.14
2022-12-28T21:11:49.982Z,9.12
2022-12-28T21:14:18.037Z,9.11
2022-12-28T21:16:45.890Z,9.08
2022-12-28T21:19:14.404Z,9.06
2022-12-28T21:21:43.189Z,9.04
2022-12-28T21:24:11.032Z,9.00
2022-12-28T21:26:38.959Z,8.99
2022-12-28T21:29:06.727Z,8.97
2022-12-28T21:31:34.618Z,8.97
2022-12-28T21:34:02.961Z,8.94
2022-12-28T21:36:30.746Z,8.95
2022-12-28T21:38:59.327Z,8.95
2022-12-28T21:41:45.839Z,8.96
2022-12-28T21:44:18.747Z,8.96
2022-12-28T21:46:48.372Z,8.95
2022-12-28T21:49:16.423Z,8.94
2022-12-28T21:51:44.237Z,8.92
2022-12-28T21:54:14.387Z,8.92
2022-12-28T21:56:44.092Z,8.93
2022-12-28T21:59:12.935Z,8.90
2022-12-28T22:02:00.699Z,8.89
2022-12-28T22:04:48.150Z,8.91
2022-12-28T22:07:17.955Z,8.90
2022-12-28T22:10:04.505Z,8.88
2022-12-28T22:12:35.802Z,8.87
2022-12-28T22:15:32.892Z,8.88
2022-12-28T22:18:12.812Z,8.88
2022-12-28T22:20:47.475Z,8.85
2022-12-28T22:23:15.943Z,8.79
2022-12-28T22:25:44.086Z,8.77
2022-12-28T22:28:12.923Z,8.79
2022-12-28T22:30:40.641Z,8.78
2022-12-28T22:33:08.713Z,8.78
2022-12-28T22:35:36.504Z,8.79
2022-12-28T22:38:04.283Z,8.79
2022-12-28T22:40:32.101Z,8.78
2022-12-28T22:42:59.905Z,8.78
2022-12-28T22:45:27.706Z,8.78
2022-12-28T22:47:59.404Z,8.78
2022-12-28T22:50:27.450Z,8.80
2022-12-28T22:52:55.888Z,8.81
2022-12-28T22:55:23.833Z,8.83
2022-12-28T22:57:51.617Z,8.85
2022-12-28T23:00:19.418Z,8.86
2022-12-28T23:02:47.505Z,8.85
2022-12-28T23:05:15.658Z,8.86
2022-12-28T23:07:43.520Z,8.87
2022-12-28T23:10:11.949Z,8.85
2022-12-28T23:12:39.728Z,8.84
2022-12-28T23:15:19.882Z,8.83
2022-12-28T23:17:49.344Z,8.85
2022-12-28T23:20:36.416Z,8.87
2022-12-28T23:23:23.457Z,8.88
2022-12-28T23:26:10.063Z,8.86
2022-12-28T23:28:37.765Z,8.86
2022-12-28T23:31:05.809Z,8.87
2022-12-28T23:33:33.717Z,8.89
2022-12-28T23:36:03.352Z,8.87
2022-12-28T23:38:32.823Z,8.86
2022-12-28T23:41:23.673Z,8.86
2022-12-28T23:43:54.947Z,8.87
2022-12-28T23:46:22.972Z,8.88
2022-12-28T23:48:50.787Z,8.86
2022-12-28T23:51:18.711Z,8.83
2022-12-28T23:53:46.753Z,8.81
2022-12-28T23:56:14.637Z,8.81
2022-12-28T23:58:42.468Z,8.78
